createdAt,value
2023-04-29T00:02:18.059Z,97010.09
2023-04-29T00:05:03.796Z,97003.25
2023-04-29T00:07:49.397Z,96992.38
2023-04-29T00:10:34.730Z,96990.22
2023-04-29T00:13:20.292Z,96991.56
2023-04-29T00:16:05.743Z,96985.53
2023-04-29T00:18:51.067Z,96983.16
2023-04-29T00:21:39.443Z,96983.66
2023-04-29T00:24:24.840Z,96985.03
2023-04-29T00:27:10.085Z,96985.53
2023-04-29T00:29:55.482Z,96983.16
2023-04-29T00:32:40.926Z,96989.91
2023-04-29T00:35:26.274Z,96997.59
2023-04-29T00:38:11.644Z,96993.66
2023-04-29T00:40:57.372Z,96994.00
2023-04-29T00:43:42.585Z,96989.69
2023-04-29T00:46:28.118Z,96987.44
2023-04-29T00:49:13.445Z,96992.59
2023-04-29T00:51:58.736Z,96991.06
2023-04-29T00:54:44.138Z,96985.28
2023-04-29T00:57:29.590Z,96992.97
2023-04-29T01:00:14.812Z,96989.66
2023-04-29T01:03:00.295Z,96989.97
2023-04-29T01:05:45.511Z,96980.91
2023-04-29T01:08:30.964Z,96983.66
2023-04-29T01:11:16.243Z,96988.00
2023-04-29T01:14:01.548Z,97010.16
2023-04-29T01:16:46.902Z,97015.00
2023-04-29T01:19:32.123Z,96994.84
2023-04-29T01:22:17.591Z,96999.44
2023-04-29T01:25:02.982Z,97006.03
2023-04-29T01:27:48.325Z,96993.81
2023-04-29T01:30:33.686Z,97007.88
2023-04-29T01:33:19.071Z,97017.97
2023-04-29T01:36:04.380Z,97010.09
2023-04-29T01:38:49.851Z,97018.84
2023-04-29T01:41:35.436Z,97010.63
2023-04-29T01:44:20.881Z,97006.22
2023-04-29T01:47:06.364Z,97001.88
2023-04-29T01:49:51.830Z,96997.28
2023-04-29T01:52:37.041Z,96993.03
2023-04-29T01:55:22.482Z,96995.09
2023-04-29T01:58:07.590Z,96994.03
2023-04-29T02:00:53.029Z,97000.38
2023-04-29T02:03:38.662Z,96990.56
2023-04-29T02:06:23.672Z,96993.00
2023-04-29T02:09:08.753Z,96982.16
2023-04-29T02:11:54.046Z,96988.56
2023-04-29T02:14:39.414Z,96979.41
2023-04-29T02:17:24.728Z,96976.66
2023-04-29T02:20:10.230Z,96974.72
2023-04-29T02:22:55.833Z,96972.81
2023-04-29T02:25:40.820Z,96962.72
2023-04-29T02:28:26.416Z,96966.25
2023-04-29T02:31:11.810Z,96954.06
2023-04-29T02:33:56.966Z,96958.69
2023-04-29T02:36:42.443Z,96961.72
2023-04-29T02:39:27.623Z,96965.28
2023-04-29T02:42:12.976Z,96973.13
2023-04-29T02:44:58.348Z,96975.78
2023-04-29T02:47:43.760Z,96981.31
2023-04-29T02:50:29.052Z,96981.00
2023-04-29T02:53:14.248Z,96971.84
2023-04-29T02:55:59.830Z,96981.56
2023-04-29T02:58:45.084Z,96982.66
2023-04-29T03:01:29.826Z,96979.34
2023-04-29T03:04:15.293Z,96987.25
2023-04-29T03:07:00.577Z,96986.72
2023-04-29T03:09:46.154Z,96987.03
2023-04-29T03:12:31.480Z,96985.09
2023-04-29T03:15:16.861Z,96984.81
2023-04-29T03:18:02.319Z,96993.25
2023-04-29T03:20:47.785Z,96996.28
2023-04-29T03:23:33.229Z,96988.69
2023-04-29T03:26:18.650Z,96989.44
2023-04-29T03:29:04.184Z,96987.31
2023-04-29T03:31:49.777Z,96983.41
2023-04-29T03:34:35.153Z,96990.84
2023-04-29T03:37:20.584Z,96992.19
2023-04-29T03:40:05.933Z,96982.88
2023-04-29T03:42:51.553Z,96983.41
2023-04-29T03:45:36.989Z,96979.69
2023-04-29T03:48:22.491Z,96993.50
2023-04-29T03:51:07.684Z,96996.25
2023-04-29T03:53:53.064Z,96982.66
2023-04-29T03:56:38.555Z,96978.03
2023-04-29T03:59:23.749Z,96982.66
2023-04-29T04:02:08.942Z,96987.50
2023-04-29T04:04:54.182Z,96988.66
2023-04-29T04:07:39.587Z,96982.97
2023-04-29T04:10:24.418Z,96987.63
2023-04-29T04:13:09.845Z,96985.72
2023-04-29T04:15:55.082Z,96990.78
2023-04-29T04:18:40.439Z,96986.16
2023-04-29T04:21:25.665Z,96987.34
2023-04-29T04:24:11.081Z,96982.72
2023-04-29T04:26:56.516Z,96983.28
2023-04-29T04:29:42.128Z,96975.66
2023-04-29T04:32:27.382Z,96987.59
2023-04-29T04:35:12.912Z,96993.03
2023-04-29T04:37:58.257Z,96988.97
2023-04-29T04:40:43.790Z,96995.97
2023-04-29T04:43:29.052Z,96992.19
2023-04-29T04:46:14.556Z,96993.53
2023-04-29T04:48:59.879Z,96998.41
2023-04-29T04:51:45.207Z,96999.50
2023-04-29T04:54:30.585Z,97002.50
2023-04-29T04:57:16.058Z,97001.50
2023-04-29T05:00:01.308Z,97004.69
2023-04-29T05:02:46.692Z,96996.28
2023-04-29T05:05:31.889Z,97006.88
2023-04-29T05:08:17.280Z,96991.06
2023-04-29T05:11:02.384Z,97002.47
2023-04-29T05:13:47.733Z,97006.06
2023-04-29T05:16:33.130Z,97001.47
2023-04-29T05:19:18.336Z,97008.31
2023-04-29T05:22:03.620Z,97012.13
2023-04-29T05:24:49.014Z,97011.59
2023-04-29T05:27:35.825Z,97002.91
2023-04-29T05:30:20.888Z,97012.41
2023-04-29T05:33:09.260Z,97011.78
2023-04-29T05:35:54.467Z,97015.06
2023-04-29T05:38:39.738Z,97021.13
2023-04-29T05:41:25.174Z,97024.59
2023-04-29T05:44:10.244Z,97024.91
2023-04-29T05:46:55.536Z,97037.09
2023-04-29T05:49:40.755Z,97033.63
2023-04-29T05:52:26.018Z,97037.94
2023-04-29T05:55:11.431Z,97034.41
2023-04-29T05:57:56.619Z,97040.66
2023-04-29T06:00:42.079Z,97049.88
2023-04-29T06:03:27.787Z,97039.81
2023-04-29T06:06:13.508Z,97041.75
2023-04-29T06:08:58.923Z,97047.81
2023-04-29T06:11:43.932Z,97046.09
2023-04-29T06:14:29.605Z,97055.41
2023-04-29T06:17:14.842Z,97055.47
2023-04-29T06:20:03.316Z,97053.53
2023-04-29T06:22:48.415Z,97057.91
2023-04-29T06:25:33.771Z,97055.75
2023-04-29T06:28:19.104Z,97060.88
2023-04-29T06:31:04.420Z,97059.78
2023-04-29T06:33:49.478Z,97061.44
2023-04-29T06:36:34.949Z,97070.41
2023-04-29T06:39:19.914Z,97072.28
2023-04-29T06:42:05.359Z,97070.06
2023-04-29T06:44:50.464Z,97069.81
2023-04-29T06:47:35.847Z,97071.47
2023-04-29T06:50:21.233Z,97072.03
2023-04-29T06:53:07.716Z,97069.53
2023-04-29T06:55:52.955Z,97071.16
2023-04-29T06:58:38.351Z,97072.69
2023-04-29T07:01:23.757Z,97068.97
2023-04-29T07:04:11.548Z,97065.63
2023-04-29T07:06:56.538Z,97069.97
2023-04-29T07:09:41.935Z,97074.84
2023-04-29T07:12:27.537Z,97077.31
2023-04-29T07:15:12.735Z,97076.84
2023-04-29T07:17:58.105Z,97077.91
2023-04-29T07:20:43.392Z,97083.94
2023-04-29T07:23:28.932Z,97086.06
2023-04-29T07:26:14.289Z,97084.44
2023-04-29T07:28:59.617Z,97095.00
2023-04-29T07:31:44.988Z,97096.97
2023-04-29T07:34:30.318Z,97095.66
2023-04-29T07:37:15.553Z,97094.50
2023-04-29T07:40:00.918Z,97096.13
2023-04-29T07:42:46.286Z,97098.84
2023-04-29T07:45:31.745Z,97095.31
2023-04-29T07:48:18.233Z,97094.22
2023-04-29T07:51:03.581Z,97086.63
2023-04-29T07:53:48.983Z,97087.66
2023-04-29T07:56:34.363Z,97093.94
2023-04-29T07:59:19.640Z,97091.19
2023-04-29T08:02:04.757Z,97083.84
2023-04-29T08:04:50.267Z,97084.63
2023-04-29T08:07:35.946Z,97079.72
2023-04-29T08:10:21.204Z,97078.31
2023-04-29T08:13:06.507Z,97083.97
2023-04-29T08:15:52.062Z,97085.78
2023-04-29T08:18:37.313Z,97093.91
2023-04-29T08:21:22.750Z,97091.25
2023-04-29T08:24:08.619Z,97089.56
2023-04-29T08:26:53.620Z,97096.66
2023-04-29T08:29:38.969Z,97095.25
2023-04-29T08:32:24.418Z,97102.38
2023-04-29T08:35:09.596Z,97102.63
2023-04-29T08:37:55.122Z,97104.00
2023-04-29T08:40:42.790Z,97098.38
2023-04-29T08:43:27.872Z,97098.53
2023-04-29T08:46:13.233Z,97091.72
2023-04-29T08:48:58.595Z,97093.00
2023-04-29T08:51:43.773Z,97094.44
2023-04-29T08:54:32.132Z,97094.97
2023-04-29T08:57:20.551Z,97103.91
2023-04-29T09:00:05.806Z,97096.31
2023-04-29T09:02:51.080Z,97100.94
2023-04-29T09:05:36.321Z,97095.72
2023-04-29T09:08:21.802Z,97105.84
2023-04-29T09:11:06.566Z,97104.78
2023-04-29T09:13:51.833Z,97102.84
2023-04-29T09:16:37.132Z,97101.47
2023-04-29T09:19:22.959Z,97100.66
2023-04-29T09:22:08.212Z,97104.97
2023-04-29T09:24:53.554Z,97107.63
2023-04-29T09:27:38.848Z,97098.97
2023-04-29T09:30:24.334Z,97093.00
2023-04-29T09:33:09.776Z,97092.94
2023-04-29T09:35:55.175Z,97095.44
2023-04-29T09:38:40.394Z,97101.19
2023-04-29T09:41:25.898Z,97104.94
2023-04-29T09:44:11.196Z,97101.63
2023-04-29T09:46:56.770Z,97106.63
2023-04-29T09:49:41.734Z,97111.16
2023-04-29T09:52:27.120Z,97100.78
2023-04-29T09:55:12.631Z,97109.47
2023-04-29T09:57:57.806Z,97105.16
2023-04-29T10:00:43.231Z,97108.50
2023-04-29T10:03:28.518Z,97098.16
2023-04-29T10:06:13.505Z,97096.94
2023-04-29T10:08:58.803Z,97096.91
2023-04-29T10:11:44.180Z,97108.09
2023-04-29T10:14:29.438Z,97097.22
2023-04-29T10:17:14.869Z,97101.34
2023-04-29T10:20:00.156Z,97096.22
2023-04-29T10:22:45.583Z,97098.94
2023-04-29T10:25:30.922Z,97089.97
2023-04-29T10:28:16.415Z,97092.06
2023-04-29T10:31:01.826Z,97089.53
2023-04-29T10:33:47.383Z,97078.72
2023-04-29T10:36:32.636Z,97075.91
2023-04-29T10:39:18.164Z,97076.84
2023-04-29T10:42:03.287Z,97082.41
2023-04-29T10:44:48.661Z,97073.19
2023-04-29T10:47:34.235Z,97075.09
2023-04-29T10:50:19.736Z,97074.38
2023-04-29T10:53:05.237Z,97075.19
2023-04-29T10:55:50.417Z,97080.59
2023-04-29T10:58:35.846Z,97078.44
2023-04-29T11:01:21.335Z,97079.72
2023-04-29T11:04:06.614Z,97081.38
2023-04-29T11:06:52.049Z,97085.19
2023-04-29T11:09:37.382Z,97076.44
2023-04-29T11:12:22.577Z,97082.19
2023-04-29T11:15:08.112Z,97083.59
2023-04-29T11:17:53.380Z,97079.22
2023-04-29T11:20:38.968Z,97075.81
2023-04-29T11:23:25.376Z,97065.59
2023-04-29T11:26:11.713Z,97057.91
2023-04-29T11:28:57.138Z,97048.06
2023-04-29T11:31:42.574Z,97058.25
2023-04-29T11:34:27.832Z,97056.06
2023-04-29T11:37:13.283Z,97057.31
2023-04-29T11:39:58.730Z,97057.38
2023-04-29T11:42:44.213Z,97059.56
2023-04-29T11:45:29.523Z,97059.84
2023-04-29T11:48:15.088Z,97063.72
2023-04-29T11:50:59.852Z,97054.03
2023-04-29T11:53:45.314Z,97053.69
2023-04-29T11:56:30.598Z,97052.28
2023-04-29T11:59:15.966Z,97055.63
2023-04-29T12:02:03.309Z,97052.31
2023-04-29T12:04:48.523Z,97056.44
2023-04-29T12:07:33.708Z,97051.22
2023-04-29T12:10:19.096Z,97044.75
2023-04-29T12:13:04.430Z,97045.44
2023-04-29T12:15:49.830Z,97037.88
2023-04-29T12:18:35.018Z,97044.84
2023-04-29T12:21:20.618Z,97051.31
2023-04-29T12:24:05.989Z,97037.94
2023-04-29T12:26:51.662Z,97042.09
2023-04-29T12:29:36.913Z,97044.38
2023-04-29T12:32:22.478Z,97046.38
2023-04-29T12:35:10.939Z,97047.91
2023-04-29T12:37:56.291Z,97044.63
2023-04-29T12:40:41.706Z,97047.34
2023-04-29T12:43:27.186Z,97053.34
2023-04-29T12:46:12.389Z,97049.63
2023-04-29T12:48:57.854Z,97052.31
2023-04-29T12:51:43.091Z,97050.16
2023-04-29T12:54:28.306Z,97052.19
2023-04-29T12:57:13.614Z,97062.72
2023-04-29T12:59:58.953Z,97060.53
2023-04-29T13:02:44.557Z,97060.09
2023-04-29T13:05:29.590Z,97061.34
2023-04-29T13:11:00.327Z,97049.09
2023-04-29T13:13:45.773Z,97059.25
2023-04-29T13:16:31.107Z,97055.25
2023-04-29T13:19:38.373Z,97050.19
2023-04-29T13:22:24.418Z,97050.47
2023-04-29T13:25:09.827Z,97038.00
2023-04-29T13:27:55.431Z,97041.47
2023-04-29T13:30:40.489Z,97036.66
2023-04-29T13:33:25.837Z,97036.44
2023-04-29T13:36:10.908Z,97028.28
2023-04-29T13:38:56.358Z,97026.16
2023-04-29T13:41:44.585Z,97024.81
2023-04-29T13:44:44.444Z,97028.06
2023-04-29T13:47:45.969Z,97030.47
2023-04-29T13:57:07.726Z,97029.13
2023-04-29T13:59:38.052Z,97025.06
2023-04-29T14:02:26.460Z,97023.19
2023-04-29T14:05:12.137Z,97018.38
2023-04-29T14:07:57.255Z,97018.09
2023-04-29T14:10:42.642Z,97018.66
2023-04-29T14:13:27.804Z,97015.38
2023-04-29T14:16:13.188Z,97007.91
2023-04-29T14:18:58.699Z,97007.16
2023-04-29T14:21:44.542Z,97008.53
2023-04-29T14:24:29.586Z,97003.88
2023-04-29T14:27:14.982Z,97011.03
2023-04-29T14:30:00.384Z,97000.56
2023-04-29T14:32:45.542Z,97013.00
2023-04-29T14:35:30.984Z,97013.28
2023-04-29T14:38:16.359Z,97024.84
2023-04-29T14:41:01.757Z,97020.75
2023-04-29T14:43:47.167Z,97030.19
2023-04-29T14:46:32.572Z,97031.44
2023-04-29T14:49:17.799Z,97021.94
2023-04-29T14:52:03.197Z,97033.22
2023-04-29T14:54:48.498Z,97022.50
2023-04-29T14:57:34.102Z,97029.94
2023-04-29T15:00:19.410Z,97015.69
2023-04-29T15:03:04.776Z,97016.25
2023-04-29T15:05:50.138Z,97022.31
2023-04-29T15:08:35.625Z,97018.16
2023-04-29T15:11:21.040Z,97028.56
2023-04-29T15:14:06.314Z,97018.84
2023-04-29T15:16:51.660Z,97020.91
2023-04-29T15:19:36.819Z,97026.50
2023-04-29T15:22:22.222Z,97026.59
2023-04-29T15:25:07.389Z,97017.44
2023-04-29T15:27:52.876Z,97024.66
2023-04-29T15:30:38.151Z,97022.56
2023-04-29T15:33:23.489Z,97018.44
2023-04-29T15:36:08.993Z,97019.13
2023-04-29T15:38:54.322Z,97021.97
2023-04-29T15:41:39.776Z,97014.75
2023-04-29T15:44:25.122Z,97020.66
2023-04-29T15:47:10.449Z,97017.69
2023-04-29T15:49:55.856Z,97018.19
2023-04-29T15:52:41.215Z,97009.69
2023-04-29T15:55:26.715Z,97011.03
2023-04-29T15:58:12.068Z,97011.13
2023-04-29T16:00:57.443Z,97012.78
2023-04-29T16:03:42.940Z,97009.59
2023-04-29T16:06:28.201Z,97009.38
2023-04-29T16:09:13.538Z,97011.75
2023-04-29T16:11:58.957Z,97007.69
2023-04-29T16:14:44.251Z,97005.09
2023-04-29T16:17:29.775Z,97006.16
2023-04-29T16:20:17.920Z,97003.63
2023-04-29T16:23:03.299Z,97004.47
2023-04-29T16:25:48.895Z,97006.22
2023-04-29T16:28:34.144Z,97009.44
2023-04-29T16:31:19.125Z,97002.41
2023-04-29T16:34:04.383Z,97012.84
2023-04-29T16:36:49.446Z,97003.06
2023-04-29T16:39:34.822Z,97012.72
2023-04-29T16:42:20.223Z,97008.28
2023-04-29T16:45:05.632Z,97011.13
2023-04-29T16:47:51.048Z,97012.53
2023-04-29T16:50:36.435Z,97007.88
2023-04-29T16:53:21.801Z,97000.09
2023-04-29T16:56:07.158Z,97007.06
2023-04-29T16:58:52.614Z,96994.06
2023-04-29T17:01:37.894Z,97007.47
2023-04-29T17:04:23.256Z,97001.69
2023-04-29T17:07:08.495Z,97001.94
2023-04-29T17:09:54.207Z,96998.50
2023-04-29T17:12:39.486Z,97004.00
2023-04-29T17:15:24.750Z,97010.50
2023-04-29T17:18:10.209Z,97011.75
2023-04-29T17:20:55.460Z,97003.88
2023-04-29T17:23:40.955Z,96992.50
2023-04-29T17:26:26.277Z,96991.41
2023-04-29T17:29:11.742Z,96989.75
2023-04-29T17:31:57.339Z,96993.41
2023-04-29T17:34:42.548Z,96976.00
2023-04-29T17:37:27.831Z,96964.97
2023-04-29T17:40:13.210Z,96964.09
2023-04-29T17:42:58.632Z,96956.88
2023-04-29T17:45:43.858Z,96961.22
2023-04-29T17:48:29.107Z,96965.38
2023-04-29T17:51:14.565Z,96956.38
2023-04-29T17:53:59.863Z,96955.03
2023-04-29T17:56:45.214Z,96952.84
2023-04-29T17:59:30.429Z,96957.47
2023-04-29T18:02:15.652Z,96959.56
2023-04-29T18:05:01.169Z,96959.25
2023-04-29T18:07:46.515Z,96971.81
2023-04-29T18:10:32.023Z,96977.91
2023-04-29T18:13:18.109Z,96979.09
2023-04-29T18:16:04.051Z,96980.84
2023-04-29T18:18:49.799Z,96986.00
2023-04-29T18:21:35.051Z,96983.34
2023-04-29T18:24:20.663Z,96982.22
2023-04-29T18:27:05.830Z,96990.53
2023-04-29T18:29:51.296Z,96989.25
2023-04-29T18:32:36.806Z,96991.44
2023-04-29T18:35:22.137Z,96986.78
2023-04-29T18:38:08.098Z,96989.81
2023-04-29T18:40:53.509Z,96998.53
2023-04-29T18:43:38.810Z,96991.25
2023-04-29T18:46:24.226Z,96995.00
2023-04-29T18:49:09.472Z,96996.66
2023-04-29T18:51:54.875Z,96994.00
2023-04-29T18:54:40.349Z,96992.94
2023-04-29T18:57:25.973Z,97001.75
2023-04-29T19:00:11.670Z,97002.91
2023-04-29T19:02:56.659Z,97002.88
2023-04-29T19:05:42.228Z,97003.72
2023-04-29T19:08:27.518Z,97004.34
2023-04-29T19:11:12.948Z,97003.09
2023-04-29T19:13:58.218Z,97013.13
2023-04-29T19:16:44.126Z,97008.03
2023-04-29T19:19:29.708Z,97012.81
2023-04-29T19:22:14.978Z,97013.13
2023-04-29T19:25:00.323Z,97018.66
2023-04-29T19:27:45.649Z,97008.78
2023-04-29T19:30:31.120Z,97021.34
2023-04-29T19:33:16.558Z,97015.63
2023-04-29T19:36:01.940Z,97013.97
2023-04-29T19:38:47.594Z,97007.78
2023-04-29T19:41:34.938Z,97021.38
2023-04-29T19:44:20.363Z,97017.06
2023-04-29T19:47:05.775Z,97015.94
2023-04-29T19:49:50.988Z,97013.28
2023-04-29T19:52:36.264Z,97025.56
2023-04-29T19:55:21.567Z,97014.78
2023-04-29T19:58:07.024Z,97015.91
2023-04-29T20:00:52.422Z,97020.31
2023-04-29T20:03:37.776Z,97020.06
2023-04-29T20:06:23.304Z,97015.69
2023-04-29T20:09:08.508Z,97015.91
2023-04-29T20:11:56.920Z,97018.88
2023-04-29T20:14:42.376Z,97024.41
2023-04-29T20:17:27.702Z,97025.75
2023-04-29T20:20:13.048Z,97021.44
2023-04-29T20:22:58.516Z,97023.91
2023-04-29T20:25:43.987Z,97023.34
2023-04-29T20:28:29.184Z,97024.41
2023-04-29T20:31:14.453Z,97023.59
2023-04-29T20:34:00.152Z,97027.13
2023-04-29T20:36:45.381Z,97030.00
2023-04-29T20:39:33.946Z,97025.22
2023-04-29T20:42:19.135Z,97030.50
2023-04-29T20:45:04.317Z,97027.13
2023-04-29T20:47:50.978Z,97032.38
2023-04-29T20:50:36.232Z,97041.41
2023-04-29T20:53:21.640Z,97044.66
2023-04-29T20:56:07.125Z,97050.91
2023-04-29T20:58:52.420Z,97056.88
2023-04-29T21:01:38.148Z,97054.78
2023-04-29T21:04:23.372Z,97064.00
2023-04-29T21:07:08.698Z,97071.56
2023-04-29T21:09:54.371Z,97076.25
2023-04-29T21:12:40.235Z,97066.94
2023-04-29T21:15:25.607Z,97070.28
2023-04-29T21:18:10.902Z,97068.38
2023-04-29T21:20:56.328Z,97071.31
2023-04-29T21:23:41.764Z,97074.09
2023-04-29T21:26:26.782Z,97076.84
2023-04-29T21:29:12.346Z,97073.81
2023-04-29T21:31:57.651Z,97073.81
2023-04-29T21:34:43.082Z,97072.16
2023-04-29T21:37:28.407Z,97064.56
2023-04-29T21:40:13.525Z,97066.75
2023-04-29T21:42:59.043Z,97064.81
2023-04-29T21:45:44.277Z,97065.13
2023-04-29T21:48:29.723Z,97062.38
2023-04-29T21:51:15.087Z,97061.81
2023-04-29T21:54:00.465Z,97056.66
2023-04-29T21:56:46.039Z,97054.84
2023-04-29T21:59:31.423Z,97055.06
2023-04-29T22:02:16.804Z,97053.78
2023-04-29T22:05:02.130Z,97051.03
2023-04-29T22:07:47.615Z,97047.47
2023-04-29T22:10:33.099Z,97054.00
2023-04-29T22:13:18.562Z,97059.41
2023-04-29T22:16:04.098Z,97059.41
2023-04-29T22:18:49.352Z,97064.31
2023-04-29T22:21:35.024Z,97072.19
2023-04-29T22:24:23.457Z,97063.81
2023-04-29T22:27:08.852Z,97072.19
2023-04-29T22:29:54.657Z,97077.13
2023-04-29T22:32:40.235Z,97073.94
2023-04-29T22:35:25.498Z,97076.31
2023-04-29T22:38:11.191Z,97079.59
2023-04-29T22:40:56.464Z,97077.44
2023-04-29T22:43:41.859Z,97075.50
2023-04-29T22:46:27.183Z,97083.47
2023-04-29T22:49:12.418Z,97081.75
2023-04-29T22:51:57.790Z,97078.78
2023-04-29T22:54:43.142Z,97082.06
2023-04-29T22:57:28.204Z,97079.59
2023-04-29T23:00:13.724Z,97080.38
2023-04-29T23:02:58.695Z,97082.09
2023-04-29T23:05:43.929Z,97088.63
2023-04-29T23:08:29.379Z,97088.63
2023-04-29T23:11:14.773Z,97092.69
2023-04-29T23:14:00.251Z,97098.63
2023-04-29T23:16:45.593Z,97095.72
2023-04-29T23:19:30.987Z,97108.72
2023-04-29T23:22:16.599Z,97102.81
2023-04-29T23:25:01.952Z,97107.41
2023-04-29T23:27:47.388Z,97101.63
2023-04-29T23:33:35.940Z,97103.56
2023-04-29T23:36:21.166Z,97106.25
2023-04-29T23:39:06.613Z,97114.19
2023-04-29T23:41:51.992Z,97112.06
2023-04-29T23:44:37.463Z,97113.91
2023-04-29T23:47:22.806Z,97113.03
2023-04-29T23:50:08.386Z,97113.09
2023-04-29T23:52:53.627Z,97109.34
2023-04-29T23:55:38.863Z,97107.88
2023-04-29T23:58:23.905Z,97113.47
